createdAt,value
2017-11-12T07:29:46.479Z,5
2017-11-12T07:30:27.040Z,5
2017-11-12T07:31:07.597Z,5
2017-11-12T07:31:48.142Z,5
2017-11-12T07:32:28.637Z,5
2017-11-12T07:33:09.167Z,5
2017-11-12T07:33:49.760Z,5
2017-11-12T07:34:30.333Z,5
2017-11-12T07:35:10.857Z,5
2017-11-12T07:35:51.343Z,5
2017-11-12T07:36:31.869Z,5
2017-11-12T07:37:12.410Z,5
2017-11-12T07:37:52.955Z,5
2017-11-12T07:38:33.504Z,5
2017-11-12T07:39:14.048Z,5
2017-11-12T07:39:54.589Z,5
2017-11-12T07:40:35.107Z,5
2017-11-12T07:41:15.628Z,5
2017-11-12T07:41:56.142Z,5
2017-11-12T07:42:36.713Z,5
2017-11-12T07:43:17.179Z,5
2017-11-12T07:43:57.820Z,5
2017-11-12T07:44:38.343Z,5
2017-11-12T07:45:18.888Z,5
2017-11-12T07:45:59.430Z,5
2017-11-12T07:46:39.938Z,5
2017-11-12T07:47:20.538Z,5
2017-11-12T07:48:01.116Z,5
2017-11-12T07:48:41.637Z,5
2017-11-12T07:49:22.272Z,5
2017-11-12T07:50:02.802Z,5
2017-11-12T07:50:43.333Z,5
2017-11-12T07:51:23.895Z,5
2017-11-12T07:52:04.483Z,10
2017-11-12T07:52:45.028Z,10
2017-11-12T07:53:25.562Z,10
2017-11-12T07:54:06.071Z,10
2017-11-12T07:54:46.635Z,10
2017-11-12T07:55:27.194Z,10
2017-11-12T07:56:07.682Z,10
2017-11-12T07:56:48.265Z,10
2017-11-12T07:57:28.837Z,10
2017-11-12T07:58:09.375Z,10
2017-11-12T07:58:49.901Z,10
2017-11-12T07:59:30.445Z,10
2017-11-12T08:00:11.089Z,10
2017-11-12T08:00:51.631Z,10
2017-11-12T08:01:32.133Z,10
2017-11-12T08:02:12.671Z,10
2017-11-12T08:02:53.235Z,10
2017-11-12T08:03:33.819Z,10
2017-11-12T08:04:14.409Z,10
2017-11-12T08:04:54.972Z,10
2017-11-12T08:05:35.527Z,10
2017-11-12T08:06:16.393Z,10
2017-11-12T08:06:56.743Z,10
2017-11-12T08:07:37.302Z,10
2017-11-12T08:08:17.874Z,10
2017-11-12T08:08:58.454Z,10
2017-11-12T08:09:39.023Z,10
2017-11-12T08:10:19.506Z,10
2017-11-12T08:11:00.041Z,10
2017-11-12T08:11:40.583Z,10
2017-11-12T08:12:21.112Z,10
2017-11-12T08:13:01.629Z,10
2017-11-12T08:13:42.194Z,10
2017-11-12T08:14:22.784Z,10
2017-11-12T08:15:03.331Z,10
2017-11-12T08:15:43.848Z,10
2017-11-12T08:16:24.372Z,10
2017-11-12T08:17:04.909Z,10
2017-11-12T08:17:45.474Z,10
2017-11-12T08:18:26.013Z,10
2017-11-12T08:19:06.567Z,10
2017-11-12T08:19:47.098Z,10
2017-11-12T08:20:27.644Z,10
2017-11-12T08:21:08.279Z,10
2017-11-12T08:21:48.787Z,10
2017-11-12T08:22:29.433Z,10
2017-11-12T08:23:09.927Z,10
2017-11-12T08:23:50.484Z,10
2017-11-12T08:24:31.030Z,10
2017-11-12T08:25:11.527Z,10
2017-11-12T08:25:52.054Z,10
2017-11-12T08:26:32.614Z,10
2017-11-12T08:27:13.175Z,10
2017-11-12T08:27:53.775Z,10
2017-11-12T08:28:34.253Z,15
2017-11-12T08:29:14.821Z,15
2017-11-12T08:29:55.288Z,15
2017-11-12T08:30:35.860Z,15
2017-11-12T08:31:16.397Z,15
2017-11-12T08:31:56.970Z,15
2017-11-12T08:32:37.521Z,15
2017-11-12T08:33:18.029Z,15
2017-11-12T08:33:58.555Z,15
2017-11-12T08:34:39.267Z,15
2017-11-12T08:35:19.685Z,15
2017-11-12T08:36:00.237Z,15
2017-11-12T08:36:40.753Z,15
2017-11-12T08:37:21.289Z,20
2017-11-12T08:38:01.844Z,20
2017-11-12T08:38:42.363Z,20
2017-11-12T08:39:22.909Z,20
2017-11-12T08:40:03.447Z,20
2017-11-12T08:40:43.984Z,20
2017-11-12T08:41:24.550Z,20
2017-11-12T08:42:05.045Z,20
2017-11-12T08:42:45.659Z,20
2017-11-12T08:43:26.210Z,20
2017-11-12T08:44:06.699Z,20
2017-11-12T08:44:47.291Z,20
2017-11-12T08:45:27.876Z,20
2017-11-12T08:46:08.392Z,20
2017-11-12T08:46:48.968Z,20
2017-11-12T08:47:29.491Z,20
2017-11-12T08:48:10.028Z,15
2017-11-12T08:48:50.566Z,15
2017-11-12T08:49:31.090Z,15
2017-11-12T08:50:11.626Z,15
2017-11-12T08:50:52.148Z,15
2017-11-12T08:51:32.701Z,15
2017-11-12T08:52:13.240Z,15
2017-11-12T08:52:53.755Z,15
2017-11-12T08:53:34.309Z,15
2017-11-12T08:54:14.829Z,10
2017-11-12T08:54:55.416Z,10
2017-11-12T08:55:35.979Z,10
2017-11-12T08:56:16.482Z,10
2017-11-12T08:56:57.173Z,10
2017-11-12T08:57:37.671Z,10
2017-11-12T08:58:18.207Z,10
2017-11-12T08:58:58.781Z,10
2017-11-12T08:59:39.288Z,10
2017-11-12T09:00:19.849Z,10
2017-11-12T09:01:00.407Z,10
2017-11-12T09:01:40.870Z,10
2017-11-12T09:02:21.461Z,10
2017-11-12T09:03:02.092Z,10
2017-11-12T09:03:42.560Z,15
2017-11-12T09:04:23.068Z,15
2017-11-12T09:05:03.596Z,15
2017-11-12T09:05:44.130Z,15
2017-11-12T09:06:24.618Z,10
2017-11-12T09:07:05.195Z,10
2017-11-12T09:07:45.737Z,10
2017-11-12T09:08:26.323Z,10
2017-11-12T09:09:06.879Z,10
2017-11-12T09:09:47.434Z,15
2017-11-12T09:10:27.920Z,15
2017-11-12T09:11:08.513Z,20
2017-11-12T09:11:49.035Z,20
2017-11-12T09:12:29.616Z,20
2017-11-12T09:13:10.170Z,20
2017-11-12T09:13:50.703Z,15
2017-11-12T09:14:31.228Z,15
2017-11-12T09:15:11.787Z,15
2017-11-12T09:15:52.340Z,15
2017-11-12T09:16:32.885Z,15
2017-11-12T09:17:13.394Z,15
2017-11-12T09:17:53.975Z,15
2017-11-12T09:18:34.510Z,15
2017-11-12T09:19:15.081Z,15
2017-11-12T09:19:55.634Z,15
2017-11-12T09:20:36.228Z,15
2017-11-12T09:21:16.744Z,15
2017-11-12T09:21:57.295Z,15
2017-11-12T09:22:37.813Z,15
2017-11-12T09:23:18.366Z,15
2017-11-12T09:23:58.883Z,15
2017-11-12T09:24:39.463Z,15
2017-11-12T09:25:19.952Z,15
2017-11-12T09:26:00.543Z,15
2017-11-12T09:26:41.042Z,15
2017-11-12T09:27:21.589Z,15
2017-11-12T09:28:02.155Z,15
2017-11-12T09:28:42.705Z,20
2017-11-12T09:29:23.234Z,20
2017-11-12T09:30:03.844Z,20
2017-11-12T09:30:44.350Z,20
2017-11-12T09:31:24.910Z,20
2017-11-12T09:32:05.397Z,20
2017-11-12T09:32:45.959Z,15
2017-11-12T09:33:26.638Z,15
2017-11-12T09:34:07.112Z,20
2017-11-12T09:34:47.672Z,20
2017-11-12T09:35:28.269Z,25
2017-11-12T09:36:08.812Z,30
2017-11-12T09:36:49.407Z,30
2017-11-12T09:37:29.964Z,30
2017-11-12T09:38:10.739Z,30
2017-11-12T09:38:51.297Z,25
2017-11-12T09:39:31.821Z,25
2017-11-12T09:40:12.342Z,20
2017-11-12T09:40:53.028Z,20
2017-11-12T09:41:33.580Z,20
2017-11-12T09:42:14.173Z,25
2017-11-12T09:42:54.685Z,25
2017-11-12T09:43:35.200Z,20
2017-11-12T09:44:15.754Z,15
2017-11-12T09:44:56.325Z,15
2017-11-12T09:45:36.843Z,15
2017-11-12T09:46:17.727Z,15
2017-11-12T09:46:59.340Z,20
2017-11-12T09:47:40.912Z,20
2017-11-12T09:48:22.519Z,20
2017-11-12T09:49:04.059Z,20
2017-11-12T09:49:45.715Z,20
2017-11-12T09:50:27.232Z,20
2017-11-12T09:51:08.833Z,20
2017-11-12T09:51:50.291Z,20
2017-11-12T09:52:32.061Z,20
2017-11-12T09:53:12.635Z,20
2017-11-12T09:53:53.214Z,20
2017-11-12T09:54:33.798Z,20
2017-11-12T09:55:14.332Z,20
2017-11-12T09:55:54.869Z,20
2017-11-12T09:56:35.462Z,25
2017-11-12T09:57:16.053Z,30
2017-11-12T09:57:57.494Z,35
2017-11-12T09:58:38.084Z,40
2017-11-12T09:59:18.877Z,40
2017-11-12T09:59:59.329Z,30
2017-11-12T10:00:39.806Z,25
2017-11-12T10:01:20.324Z,20
2017-11-12T10:02:00.852Z,15
2017-11-12T10:02:41.508Z,15
2017-11-12T10:03:22.211Z,15
2017-11-12T10:04:02.612Z,15
2017-11-12T10:04:43.145Z,20
2017-11-12T10:05:23.720Z,25
2017-11-12T10:06:04.428Z,35
2017-11-12T10:06:44.960Z,40
2017-11-12T10:07:25.545Z,45
2017-11-12T10:08:06.124Z,50
2017-11-12T10:08:46.895Z,55
2017-11-12T10:09:27.437Z,45
2017-11-12T10:10:07.991Z,40
2017-11-12T10:10:48.724Z,35
2017-11-12T10:11:29.356Z,35
2017-11-12T10:12:09.961Z,30
2017-11-12T10:12:50.479Z,35
2017-11-12T10:13:31.146Z,30
2017-11-12T10:14:11.691Z,30
2017-11-12T10:14:52.309Z,30
2017-11-12T10:15:32.875Z,25
2017-11-12T10:16:13.394Z,25
2017-11-12T10:16:53.909Z,25
2017-11-12T10:17:34.471Z,25
2017-11-12T10:18:15.119Z,25
2017-11-12T10:18:55.555Z,25
2017-11-12T10:19:36.074Z,25
2017-11-12T10:20:16.604Z,20
2017-11-12T10:20:57.307Z,20
2017-11-12T10:21:37.883Z,25
2017-11-12T10:22:18.495Z,25
2017-11-12T10:22:59.030Z,25
2017-11-12T10:23:39.602Z,25
2017-11-12T10:24:20.193Z,25
2017-11-12T10:25:00.779Z,25
2017-11-12T10:25:41.265Z,25
2017-11-12T10:26:21.896Z,20
2017-11-12T10:27:02.474Z,20
2017-11-12T10:27:43.025Z,20
2017-11-12T10:28:24.021Z,20
2017-11-12T10:29:04.370Z,15
2017-11-12T10:29:44.871Z,15
2017-11-12T10:30:25.487Z,10
2017-11-12T10:31:06.024Z,10
2017-11-12T10:31:46.534Z,10
2017-11-12T10:32:27.092Z,5
2017-11-12T10:33:07.605Z,5
2017-11-12T10:33:48.154Z,5
2017-11-12T10:34:28.729Z,5
2017-11-12T10:35:09.437Z,0
2017-11-12T10:35:50.144Z,0
2017-11-12T10:36:30.658Z,0
2017-11-12T10:37:11.266Z,5
2017-11-12T10:37:51.800Z,5
2017-11-12T10:38:32.362Z,5
2017-11-12T10:39:12.968Z,5
2017-11-12T10:39:53.484Z,5
2017-11-12T10:40:34.155Z,5
2017-11-12T10:41:14.761Z,5
2017-11-12T10:41:55.512Z,10
2017-11-12T10:42:35.992Z,10
2017-11-12T10:43:16.554Z,15
2017-11-12T10:43:57.240Z,20
2017-11-12T10:44:37.792Z,20
2017-11-12T10:45:18.325Z,25
2017-11-12T10:45:58.858Z,25
2017-11-12T10:46:39.387Z,30
2017-11-12T10:47:19.983Z,35
2017-11-12T10:48:00.569Z,35
2017-11-12T10:48:41.248Z,40
2017-11-12T10:49:21.687Z,40
2017-11-12T10:50:02.480Z,35
2017-11-12T10:50:43.068Z,35
2017-11-12T10:51:23.614Z,30
2017-11-12T10:52:04.140Z,30
2017-11-12T10:52:44.835Z,30
2017-11-12T10:53:25.347Z,25
2017-11-12T10:54:05.869Z,20
2017-11-12T10:54:46.458Z,20
2017-11-12T10:55:27.033Z,20
2017-11-12T10:56:07.540Z,15
2017-11-12T10:56:48.203Z,15
2017-11-12T10:57:28.689Z,15
2017-11-12T10:58:09.273Z,15
2017-11-12T10:58:49.800Z,15
2017-11-12T10:59:30.346Z,20
2017-11-12T11:00:10.899Z,15
2017-11-12T11:00:51.435Z,15
2017-11-12T11:01:32.020Z,15
2017-11-12T11:02:12.632Z,15
2017-11-12T11:02:53.142Z,20
2017-11-12T11:03:33.673Z,20
2017-11-12T11:04:14.231Z,15
2017-11-12T11:04:54.776Z,15
2017-11-12T11:05:35.303Z,15
2017-11-12T11:06:15.848Z,15
2017-11-12T11:06:56.345Z,15
2017-11-12T11:07:36.926Z,10
2017-11-12T11:08:17.452Z,10
2017-11-12T11:08:58.058Z,10
2017-11-12T11:09:38.611Z,10
2017-11-12T11:10:19.182Z,10
2017-11-12T11:10:59.722Z,10
2017-11-12T11:11:40.234Z,10
2017-11-12T11:12:20.772Z,10
2017-11-12T11:13:01.421Z,10
2017-11-12T11:13:42.010Z,10
2017-11-12T11:14:22.588Z,10
2017-11-12T11:15:03.138Z,10
2017-11-12T11:15:43.726Z,10
2017-11-12T11:16:24.276Z,15
2017-11-12T11:17:04.854Z,20
2017-11-12T11:17:45.351Z,30
2017-11-12T11:18:25.874Z,30
2017-11-12T11:19:06.408Z,30
2017-11-12T11:19:47.013Z,25
2017-11-12T11:20:27.608Z,20
2017-11-12T11:21:08.178Z,15
2017-11-12T11:21:48.694Z,10
2017-11-12T11:22:29.245Z,10
2017-11-12T11:23:09.743Z,15
2017-11-12T11:23:50.392Z,15
2017-11-12T11:24:30.969Z,10
2017-11-12T11:25:11.517Z,15
2017-11-12T11:25:52.058Z,15
2017-11-12T11:26:32.817Z,15
2017-11-12T11:27:13.350Z,20
2017-11-12T11:27:53.898Z,25
2017-11-12T11:28:34.405Z,30
2017-11-12T11:29:15.067Z,35
2017-11-12T11:29:55.616Z,40
2017-11-12T11:30:36.168Z,40
2017-11-12T11:31:16.730Z,35
2017-11-12T11:31:57.272Z,30
2017-11-12T11:32:37.865Z,30
2017-11-12T11:33:18.430Z,30
2017-11-12T11:33:58.957Z,30
2017-11-12T11:34:39.723Z,30
2017-11-12T11:35:20.190Z,25
2017-11-12T11:36:00.720Z,20
2017-11-12T11:36:41.264Z,20
2017-11-12T11:37:21.899Z,15
2017-11-12T11:38:02.533Z,10
2017-11-12T11:38:43.047Z,10
2017-11-12T11:39:23.746Z,10
2017-11-12T11:40:04.132Z,10
2017-11-12T11:40:44.636Z,15
2017-11-12T11:41:25.202Z,10
2017-11-12T11:42:05.730Z,10
2017-11-12T11:42:46.308Z,10
2017-11-12T11:43:26.833Z,10
2017-11-12T11:44:07.443Z,5
2017-11-12T11:44:48.050Z,5
2017-11-12T11:45:28.506Z,5
2017-11-12T11:46:09.109Z,5
2017-11-12T11:46:49.623Z,5
2017-11-12T11:47:30.158Z,10
2017-11-12T11:48:10.793Z,10
2017-11-12T11:48:51.277Z,10
2017-11-12T11:49:31.868Z,10
2017-11-12T11:50:12.376Z,5
2017-11-12T11:50:52.959Z,5
2017-11-12T11:51:33.541Z,5
2017-11-12T11:52:14.202Z,5
2017-11-12T11:52:54.782Z,5
2017-11-12T11:53:35.383Z,5
2017-11-12T11:54:16.071Z,5
2017-11-12T11:54:56.636Z,10
2017-11-12T11:55:37.178Z,10
2017-11-12T11:56:17.799Z,10
2017-11-12T11:56:58.494Z,5
2017-11-12T11:57:39.116Z,5
2017-11-12T11:58:19.655Z,5
2017-11-12T11:59:00.227Z,5
2017-11-12T11:59:40.744Z,5
2017-11-12T12:00:21.816Z,5
2017-11-12T12:01:02.621Z,5
2017-11-12T12:01:43.186Z,5
2017-11-12T12:02:23.743Z,5
2017-11-12T12:03:04.334Z,5
2017-11-12T12:03:44.904Z,5
2017-11-12T12:04:25.490Z,5
2017-11-12T12:05:06.125Z,5
2017-11-12T12:05:46.699Z,5
2017-11-12T12:06:27.243Z,5
2017-11-12T12:07:07.862Z,0
2017-11-12T12:07:48.418Z,0
2017-11-12T12:08:28.957Z,0
2017-11-12T12:09:09.640Z,5
2017-11-12T12:09:50.140Z,5
2017-11-12T12:10:30.739Z,5
2017-11-12T12:11:11.304Z,5
2017-11-12T12:11:51.822Z,5
2017-11-12T12:12:32.374Z,5
2017-11-12T12:13:12.925Z,5
2017-11-12T12:13:53.504Z,5
2017-11-12T12:14:33.992Z,5
2017-11-12T12:15:14.550Z,5
2017-11-12T12:15:55.081Z,5
2017-11-12T12:16:35.659Z,5
2017-11-12T12:17:16.278Z,5
2017-11-12T12:17:56.832Z,0
2017-11-12T12:18:37.391Z,0
2017-11-12T12:19:17.934Z,0
2017-11-12T12:19:58.471Z,0
2017-11-12T12:20:39.026Z,5
2017-11-12T12:21:19.577Z,5
2017-11-12T12:22:00.123Z,5
2017-11-12T12:22:40.659Z,5
2017-11-12T12:23:21.191Z,5
2017-11-12T12:24:01.807Z,5
2017-11-12T12:24:42.353Z,5
2017-11-12T12:25:22.916Z,5
2017-11-12T12:26:03.535Z,5
2017-11-12T12:26:44.153Z,5
2017-11-12T12:27:24.637Z,5
2017-11-12T12:28:05.233Z,5
2017-11-12T12:28:45.764Z,5
2017-11-12T12:29:26.377Z,5
2017-11-12T12:30:06.989Z,10
2017-11-12T12:30:47.521Z,10
2017-11-12T12:31:28.045Z,10
2017-11-12T12:32:08.663Z,10
2017-11-12T12:32:49.209Z,10
2017-11-12T12:33:29.812Z,10
2017-11-12T12:34:12.006Z,10
2017-11-12T12:34:52.569Z,10
2017-11-12T12:35:33.089Z,15
2017-11-12T12:36:13.839Z,15
2017-11-12T12:36:54.492Z,15
2017-11-12T12:37:34.963Z,15
2017-11-12T12:38:15.924Z,15
2017-11-12T12:38:56.487Z,15
2017-11-12T12:39:37.053Z,15
2017-11-12T12:40:17.908Z,15
2017-11-12T12:40:58.460Z,10
2017-11-12T12:41:39.028Z,15
2017-11-12T12:42:19.669Z,15
2017-11-12T12:43:00.228Z,15
2017-11-12T12:43:40.912Z,15
2017-11-12T12:44:21.557Z,15
2017-11-12T12:45:02.247Z,15
2017-11-12T12:45:42.966Z,15
2017-11-12T12:46:23.473Z,15
2017-11-12T12:47:04.002Z,15
2017-11-12T12:47:44.539Z,15
2017-11-12T12:48:25.135Z,15
2017-11-12T12:49:05.634Z,15
2017-11-12T12:49:46.282Z,15
2017-11-12T12:50:26.810Z,10
2017-11-12T12:51:07.413Z,10
2017-11-12T12:51:47.978Z,5
2017-11-12T12:52:28.586Z,5
2017-11-12T12:53:09.105Z,5
2017-11-12T12:53:49.656Z,5
2017-11-12T12:54:30.201Z,5
2017-11-12T12:55:10.756Z,5
2017-11-12T12:55:51.282Z,5
2017-11-12T12:56:31.906Z,5
2017-11-12T12:57:12.462Z,5
2017-11-12T12:57:53.023Z,5
2017-11-12T12:58:33.576Z,5
2017-11-12T12:59:14.116Z,5
2017-11-12T12:59:54.630Z,10
2017-11-12T13:00:35.197Z,10
2017-11-12T13:01:15.770Z,5
2017-11-12T13:01:56.282Z,5
2017-11-12T13:02:36.850Z,5
2017-11-12T13:03:17.426Z,5
2017-11-12T13:03:57.973Z,5
2017-11-12T13:04:38.703Z,5
2017-11-12T13:05:19.189Z,5
2017-11-12T13:05:59.758Z,5
2017-11-12T13:06:40.482Z,5
2017-11-12T13:07:21.036Z,5
2017-11-12T13:08:01.631Z,5
2017-11-12T13:08:42.253Z,5
2017-11-12T13:09:22.790Z,5
2017-11-12T13:10:03.339Z,5
2017-11-12T13:10:43.846Z,5
2017-11-12T13:11:24.421Z,5
2017-11-12T13:12:04.986Z,5
2017-11-12T13:12:45.555Z,5
2017-11-12T13:13:26.065Z,5
2017-11-12T13:14:06.635Z,5
2017-11-12T13:14:47.935Z,5
2017-11-12T13:15:27.725Z,5
2017-11-12T13:16:08.323Z,5
2017-11-12T13:16:48.858Z,5
2017-11-12T13:17:29.433Z,5
2017-11-12T13:18:10.248Z,5
2017-11-12T13:18:50.809Z,10
2017-11-12T13:19:31.434Z,10
2017-11-12T13:20:12.026Z,5
2017-11-12T13:20:52.595Z,5
2017-11-12T13:21:33.227Z,5
2017-11-12T13:22:13.794Z,5
2017-11-12T13:22:54.341Z,5
2017-11-12T13:23:34.884Z,5
2017-11-12T13:24:15.451Z,5
2017-11-12T13:24:55.995Z,5
2017-11-12T13:25:36.595Z,5
2017-11-12T13:26:17.113Z,5
2017-11-12T13:26:57.601Z,5
2017-11-12T13:27:38.171Z,5
2017-11-12T13:28:18.709Z,5
2017-11-12T13:28:59.299Z,5
2017-11-12T13:29:39.838Z,5
2017-11-12T13:30:20.347Z,5
2017-11-12T13:31:01.029Z,5
2017-11-12T13:31:41.593Z,5
2017-11-12T13:32:22.158Z,5
2017-11-12T13:33:02.745Z,5
2017-11-12T13:33:43.376Z,10
2017-11-12T13:34:23.961Z,10
2017-11-12T13:35:04.623Z,10
2017-11-12T13:35:45.111Z,15
2017-11-12T13:36:25.655Z,10
2017-11-12T13:37:06.206Z,10
2017-11-12T13:37:46.744Z,10
2017-11-12T13:38:27.299Z,15
2017-11-12T13:39:07.879Z,15
2017-11-12T13:39:48.471Z,15
2017-11-12T13:40:29.008Z,15
2017-11-12T13:41:09.551Z,15
2017-11-12T13:41:50.140Z,15
2017-11-12T13:42:30.610Z,15
2017-11-12T13:43:11.231Z,15
2017-11-12T13:43:51.791Z,15
2017-11-12T13:44:32.363Z,20
2017-11-12T13:45:12.917Z,20
2017-11-12T13:45:53.612Z,20
2017-11-12T13:46:34.428Z,20
2017-11-12T13:47:14.981Z,15
2017-11-12T13:47:55.599Z,15
2017-11-12T13:48:36.126Z,15
2017-11-12T13:49:16.736Z,15
2017-11-12T13:49:57.253Z,15
2017-11-12T13:50:37.799Z,15
2017-11-12T13:51:18.351Z,15
2017-11-12T13:51:59.128Z,20
2017-11-12T13:52:39.725Z,20
2017-11-12T13:53:20.273Z,20
2017-11-12T13:54:00.901Z,20
2017-11-12T13:54:41.430Z,25
2017-11-12T13:55:22.701Z,25
2017-11-12T13:56:03.261Z,20
2017-11-12T13:56:43.834Z,20
2017-11-12T13:57:24.399Z,20
2017-11-12T13:58:04.949Z,20
2017-11-12T13:58:45.632Z,20
2017-11-12T13:59:26.041Z,20
2017-11-12T14:00:06.749Z,15
2017-11-12T14:00:47.266Z,15
2017-11-12T14:01:27.781Z,15
2017-11-12T14:02:08.345Z,15
2017-11-12T14:02:48.895Z,15
2017-11-12T14:03:29.501Z,15
2017-11-12T14:04:10.027Z,10
2017-11-12T14:04:50.603Z,10
2017-11-12T14:05:31.224Z,10
2017-11-12T14:06:11.810Z,10
2017-11-12T14:06:52.328Z,10
2017-11-12T14:07:32.871Z,10
2017-11-12T14:08:13.368Z,10
2017-11-12T14:08:53.961Z,10
2017-11-12T14:09:34.455Z,10
2017-11-12T14:10:14.983Z,10
2017-11-12T14:10:55.549Z,10
2017-11-12T14:11:36.108Z,10
2017-11-12T14:12:16.795Z,15
2017-11-12T14:12:57.372Z,15
2017-11-12T14:13:37.892Z,15
2017-11-12T14:14:18.404Z,15
2017-11-12T14:14:59.000Z,15
2017-11-12T14:15:39.626Z,15
2017-11-12T14:16:20.210Z,20
2017-11-12T14:17:03.595Z,20
2017-11-12T14:17:44.090Z,25
2017-11-12T14:18:24.623Z,30
2017-11-12T14:19:05.336Z,30
2017-11-12T14:19:45.899Z,30
2017-11-12T14:20:26.444Z,30
2017-11-12T14:21:07.023Z,30
2017-11-12T14:21:47.575Z,25
2017-11-12T14:22:28.385Z,25
2017-11-12T14:23:08.850Z,20
2017-11-12T14:23:49.420Z,15
2017-11-12T14:24:29.960Z,15
2017-11-12T14:25:10.637Z,15
2017-11-12T14:25:51.125Z,15
2017-11-12T14:26:31.643Z,15
2017-11-12T14:27:12.529Z,15
2017-11-12T14:27:53.219Z,15
2017-11-12T14:28:33.811Z,10
2017-11-12T14:29:14.420Z,10
2017-11-12T14:29:54.968Z,10
2017-11-12T14:30:35.640Z,10
2017-11-12T14:31:16.179Z,10
2017-11-12T14:31:56.787Z,10
2017-11-12T14:32:37.306Z,10
2017-11-12T14:33:20.911Z,10
2017-11-12T14:34:01.546Z,10
2017-11-12T14:34:42.202Z,5
2017-11-12T14:35:23.016Z,5
2017-11-12T14:36:03.628Z,5
2017-11-12T14:36:44.187Z,5
2017-11-12T14:37:25.017Z,5
2017-11-12T14:38:05.500Z,5
2017-11-12T14:38:46.096Z,5
2017-11-12T14:39:26.767Z,5
2017-11-12T14:40:07.231Z,5
2017-11-12T14:40:47.815Z,5
2017-11-12T14:41:28.367Z,10
2017-11-12T14:42:08.989Z,10
2017-11-12T14:42:49.699Z,10
2017-11-12T14:43:30.296Z,10
2017-11-12T14:44:10.798Z,5
2017-11-12T14:44:51.352Z,10
2017-11-12T14:45:31.996Z,10
2017-11-12T14:46:12.680Z,10
2017-11-12T14:46:53.175Z,10
2017-11-12T14:47:33.714Z,10
2017-11-12T14:48:14.349Z,10
2017-11-12T14:48:54.991Z,10
2017-11-12T14:49:35.625Z,10
2017-11-12T14:50:16.244Z,10
2017-11-12T14:50:56.809Z,10
2017-11-12T14:51:37.544Z,10
2017-11-12T14:52:18.058Z,10
2017-11-12T14:52:58.606Z,10
2017-11-12T14:53:39.227Z,10
2017-11-12T14:54:19.960Z,15
2017-11-12T14:55:00.591Z,15
2017-11-12T14:55:41.291Z,15
2017-11-12T14:56:21.810Z,15
2017-11-12T14:57:02.473Z,15
2017-11-12T14:57:42.995Z,15
2017-11-12T14:58:23.564Z,10
2017-11-12T14:59:04.205Z,10
2017-11-12T14:59:44.708Z,10
2017-11-12T15:00:25.296Z,10
2017-11-12T15:01:05.883Z,10
2017-11-12T15:01:46.468Z,10
2017-11-12T15:02:27.001Z,10
2017-11-12T15:03:07.510Z,10
2017-11-12T15:03:48.153Z,10
2017-11-12T15:04:28.830Z,10
2017-11-12T15:05:09.328Z,10
2017-11-12T15:05:50.013Z,10
2017-11-12T15:06:30.714Z,10
2017-11-12T15:07:11.309Z,10
2017-11-12T15:07:51.897Z,5
2017-11-12T15:08:32.416Z,5
2017-11-12T15:09:13.046Z,5
2017-11-12T15:09:53.671Z,5
2017-11-12T15:10:34.299Z,5
2017-11-12T15:11:14.874Z,5
2017-11-12T15:11:55.358Z,5
2017-11-12T15:12:36.055Z,5
2017-11-12T15:13:16.802Z,5
2017-11-12T15:13:57.317Z,5
2017-11-12T15:14:38.024Z,0
2017-11-12T15:15:18.638Z,0
2017-11-12T15:15:59.167Z,0
2017-11-12T15:16:39.778Z,0
2017-11-12T15:17:20.467Z,0
2017-11-12T15:18:01.100Z,0
2017-11-12T15:18:41.929Z,0
2017-11-12T15:19:22.620Z,0
2017-11-12T15:20:03.297Z,0
2017-11-12T15:20:43.998Z,0
2017-11-12T15:21:24.648Z,0
2017-11-12T15:22:05.145Z,0
2017-11-12T15:22:45.739Z,0
2017-11-12T15:23:26.265Z,0
2017-11-12T15:24:06.848Z,0
2017-11-12T15:24:47.493Z,0
2017-11-12T15:25:28.171Z,0
2017-11-12T15:26:09.046Z,0
2017-11-12T15:26:49.604Z,0
2017-11-12T15:27:30.229Z,0
2017-11-12T15:28:11.013Z,0
2017-11-12T15:28:51.839Z,0
2017-11-12T15:29:33.477Z,0
2017-11-12T15:30:13.420Z,0
2017-11-12T15:30:54.198Z,0
2017-11-12T15:31:34.817Z,0
2017-11-12T15:32:15.535Z,0
2017-11-12T15:32:56.458Z,0
2017-11-12T15:33:38.977Z,0
2017-11-12T15:34:19.588Z,0
2017-11-12T15:35:00.160Z,0
2017-11-12T15:35:40.731Z,0
2017-11-12T15:36:21.312Z,0
2017-11-12T15:37:01.801Z,0
2017-11-12T15:37:42.980Z,0
2017-11-12T15:38:23.602Z,0
2017-11-12T15:39:04.408Z,0
2017-11-12T15:39:45.126Z,0
2017-11-12T15:40:25.675Z,0
2017-11-12T15:41:06.324Z,0
2017-11-12T15:41:46.831Z,0
2017-11-12T15:42:27.428Z,0
2017-11-12T15:43:07.938Z,0
2017-11-12T15:43:48.561Z,0
2017-11-12T15:44:29.219Z,0
2017-11-12T15:45:09.850Z,0
2017-11-12T15:45:50.621Z,0
2017-11-12T15:46:31.193Z,0
2017-11-12T15:47:11.899Z,0
2017-11-12T15:47:52.557Z,0
2017-11-12T15:48:33.211Z,0
2017-11-12T15:49:14.615Z,0
2017-11-12T15:49:55.090Z,0
2017-11-12T15:50:35.631Z,0
2017-11-12T15:51:16.330Z,0
2017-11-12T15:51:57.017Z,0
2017-11-12T15:52:37.595Z,0
2017-11-12T15:53:18.218Z,0
2017-11-12T15:53:58.916Z,0
2017-11-12T15:54:39.468Z,0
2017-11-12T15:55:20.003Z,0
2017-11-12T15:56:00.576Z,0
2017-11-12T15:56:41.099Z,0
2017-11-12T15:57:21.662Z,0
2017-11-12T15:58:02.219Z,0
2017-11-12T15:58:42.818Z,0
2017-11-12T15:59:23.512Z,0
2017-11-12T16:00:04.051Z,0
2017-11-12T16:00:44.865Z,0
2017-11-12T16:01:25.478Z,0
2017-11-12T16:02:06.046Z,0
2017-11-12T16:02:46.644Z,0
2017-11-12T16:03:27.321Z,0
2017-11-12T16:04:08.058Z,0
2017-11-12T16:04:48.809Z,0
2017-11-12T16:05:29.812Z,0
2017-11-12T16:06:10.550Z,0
2017-11-12T16:06:51.193Z,0
2017-11-12T16:07:31.768Z,0
2017-11-12T16:08:12.322Z,0
2017-11-12T16:08:52.877Z,0
2017-11-12T16:09:33.513Z,0
2017-11-12T16:10:14.113Z,0
2017-11-12T16:10:55.036Z,0
2017-11-12T16:11:35.882Z,0
2017-11-12T16:12:16.486Z,0
2017-11-12T16:12:57.080Z,0
2017-11-12T16:13:37.738Z,0
2017-11-12T16:14:18.600Z,0
2017-11-12T16:14:59.398Z,0
2017-11-12T16:15:40.130Z,0
2017-11-12T16:16:21.042Z,0
2017-11-12T16:17:01.690Z,0
2017-11-12T16:17:42.282Z,0
2017-11-12T16:18:23.036Z,0
2017-11-12T16:19:03.496Z,0
2017-11-12T16:19:44.234Z,0
2017-11-12T16:20:24.882Z,0
2017-11-12T16:21:05.732Z,0
2017-11-12T16:21:47.194Z,0
2017-11-12T16:22:27.849Z,0
2017-11-12T16:23:09.607Z,0
2017-11-12T16:23:50.212Z,0
2017-11-12T16:24:30.944Z,0
2017-11-12T16:25:11.758Z,0
2017-11-12T16:25:52.516Z,0
2017-11-12T16:26:33.092Z,0
2017-11-12T16:27:13.857Z,0
2017-11-12T16:27:55.154Z,0
2017-11-12T16:28:35.480Z,0
2017-11-12T16:29:16.146Z,0
2017-11-12T16:29:56.819Z,0
2017-11-12T16:30:37.436Z,0
2017-11-12T16:31:17.996Z,0
2017-11-12T16:31:58.594Z,0
2017-11-12T16:32:39.403Z,0
2017-11-12T16:33:20.281Z,0
2017-11-12T16:34:00.877Z,0
2017-11-12T16:34:41.490Z,0
2017-11-12T16:35:22.078Z,0
2017-11-12T16:36:02.734Z,0
2017-11-12T16:36:43.188Z,0
2017-11-12T16:37:23.852Z,0
2017-11-12T16:38:04.635Z,0
2017-11-12T16:38:45.320Z,0
2017-11-12T16:39:25.932Z,0
2017-11-12T16:40:06.699Z,0
2017-11-12T16:40:47.331Z,0
2017-11-12T16:41:28.008Z,0
2017-11-12T16:42:08.757Z,0
2017-11-12T16:42:49.374Z,0
2017-11-12T16:43:29.942Z,0
2017-11-12T16:44:10.516Z,0
2017-11-12T16:44:51.089Z,0
2017-11-12T16:45:31.670Z,0
2017-11-12T16:46:12.359Z,0
2017-11-12T16:46:52.894Z,0
2017-11-12T16:47:33.462Z,0
2017-11-12T16:48:14.090Z,0
2017-11-12T16:48:54.714Z,0
2017-11-12T16:49:35.241Z,0
2017-11-12T16:50:15.821Z,0
2017-11-12T16:50:56.734Z,0
2017-11-12T16:51:37.489Z,0
2017-11-12T16:52:18.184Z,0
2017-11-12T16:52:58.783Z,0
2017-11-12T16:53:39.471Z,0
2017-11-12T16:57:25.443Z,0
2017-11-12T16:58:06.831Z,0
2017-11-12T16:58:47.341Z,0
2017-11-12T16:59:27.969Z,0
2017-11-12T17:00:08.638Z,0
2017-11-12T17:00:49.259Z,0
2017-11-12T17:01:29.948Z,0
2017-11-12T17:02:10.419Z,0
2017-11-12T17:02:51.126Z,0
2017-11-12T17:03:31.729Z,0
2017-11-12T17:04:19.859Z,0
2017-11-12T17:04:55.821Z,0
2017-11-12T17:05:38.019Z,0
2017-11-12T17:06:19.572Z,0
2017-11-12T17:07:01.069Z,0
2017-11-12T17:07:41.559Z,0
2017-11-12T17:08:22.138Z,0
2017-11-12T17:09:03.422Z,0
2017-11-12T17:09:44.380Z,0
2017-11-12T17:12:14.207Z,0
2017-11-12T17:12:55.082Z,0
2017-11-12T17:13:35.747Z,0
2017-11-12T17:14:16.494Z,0
2017-11-12T17:14:56.992Z,0
2017-11-12T17:15:37.567Z,0
2017-11-12T17:16:18.157Z,0
2017-11-12T17:16:58.989Z,0
2017-11-12T17:17:39.490Z,0
2017-11-12T17:18:20.450Z,0
2017-11-12T17:19:01.024Z,0
2017-11-12T17:19:41.606Z,0
2017-11-12T17:20:22.238Z,0
2017-11-12T17:21:02.847Z,0
2017-11-12T17:21:43.421Z,0
2017-11-12T17:22:24.015Z,0